Terminal Aerodrome Forecast
Issued by NWS

Home | Current Version | Previous Version | Text Only | Print | Product List | Glossary On
Versions: 1 2 3 4 5 6 7 8 9 10 11 12 13 14 15 16 17 18 19 20 21 22 23 24
000
FTUS43 KGLD 300155 AAA
TAFMCK
TAF AMD
KMCK 300155Z 3002/3024 14016G26KT P6SM SCT050 BKN100
     FM300400 13013G23KT 5SM -TSRA BKN035CB
      TEMPO 3004/3005 23020G45KT 1SM TSRA BLDU
     FM300600 22012KT P6SM VCSH SCT030 BKN090
     FM300800 22011KT P6SM BKN060=

USA.gov is the U.S. government's official web portal to all federal, state and local government web resources and services.